sensor_id;sensor_type;location;lat;lon;timestamp;P1;durP1;ratioP1;P2;durP2;ratioP2
20065;SDS011;10193;48.884;9.182;2023-05-07T00:00:55;1.85;;;1.75;;
20065;SDS011;10193;48.884;9.182;2023-05-07T00:03:25;1.80;;;1.70;;
20065;SDS011;10193;48.884;9.182;2023-05-07T00:05:52;1.65;;;1.38;;
20065;SDS011;10193;48.884;9.182;2023-05-07T00:08:19;1.83;;;1.73;;
20065;SDS011;10193;48.884;9.182;2023-05-07T00:10:46;2.15;;;1.50;;
20065;SDS011;10193;48.884;9.182;2023-05-07T00:13:13;1.60;;;1.50;;
20065;SDS011;10193;48.884;9.182;2023-05-07T00:15:39;1.70;;;1.60;;
20065;SDS011;10193;48.884;9.182;2023-05-07T00:18:06;1.60;;;1.50;;
20065;SDS011;10193;48.884;9.182;2023-05-07T00:20:34;1.90;;;1.65;;
20065;SDS011;10193;48.884;9.182;2023-05-07T00:23:01;1.80;;;1.70;;
20065;SDS011;10193;48.884;9.182;2023-05-07T00:25:28;2.28;;;2.03;;
20065;SDS011;10193;48.884;9.182;2023-05-07T00:27:54;2.13;;;2.00;;
20065;SDS011;10193;48.884;9.182;2023-05-07T00:30:22;2.00;;;1.90;;
20065;SDS011;10193;48.884;9.182;2023-05-07T00:32:49;2.33;;;2.13;;
20065;SDS011;10193;48.884;9.182;2023-05-07T00:35:15;1.90;;;1.80;;
20065;SDS011;10193;48.884;9.182;2023-05-07T00:37:43;1.80;;;1.70;;
20065;SDS011;10193;48.884;9.182;2023-05-07T00:40:10;1.88;;;1.77;;
20065;SDS011;10193;48.884;9.182;2023-05-07T00:42:37;1.60;;;1.50;;
20065;SDS011;10193;48.884;9.182;2023-05-07T00:45:04;1.58;;;1.48;;
20065;SDS011;10193;48.884;9.182;2023-05-07T00:47:32;1.63;;;1.52;;
20065;SDS011;10193;48.884;9.182;2023-05-07T00:49:59;2.20;;;1.98;;
20065;SDS011;10193;48.884;9.182;2023-05-07T00:52:26;1.80;;;1.70;;
20065;SDS011;10193;48.884;9.182;2023-05-07T00:54:54;2.25;;;1.85;;
20065;SDS011;10193;48.884;9.182;2023-05-07T00:57:21;1.75;;;1.65;;
20065;SDS011;10193;48.884;9.182;2023-05-07T00:59:50;2.13;;;1.80;;
20065;SDS011;10193;48.884;9.182;2023-05-07T01:02:17;1.80;;;1.70;;
20065;SDS011;10193;48.884;9.182;2023-05-07T01:04:44;1.98;;;1.88;;
20065;SDS011;10193;48.884;9.182;2023-05-07T01:07:10;1.90;;;1.80;;
20065;SDS011;10193;48.884;9.182;2023-05-07T01:09:37;2.03;;;1.92;;
20065;SDS011;10193;48.884;9.182;2023-05-07T01:12:06;2.05;;;1.90;;
20065;SDS011;10193;48.884;9.182;2023-05-07T01:14:34;2.17;;;2.03;;
20065;SDS011;10193;48.884;9.182;2023-05-07T01:17:00;1.90;;;1.80;;
20065;SDS011;10193;48.884;9.182;2023-05-07T01:19:28;2.13;;;2.00;;
20065;SDS011;10193;48.884;9.182;2023-05-07T01:21:56;2.08;;;1.85;;
20065;SDS011;10193;48.884;9.182;2023-05-07T01:24:30;1.77;;;1.67;;
20065;SDS011;10193;48.884;9.182;2023-05-07T01:26:58;2.05;;;1.95;;
20065;SDS011;10193;48.884;9.182;2023-05-07T01:29:26;2.10;;;1.50;;
20065;SDS011;10193;48.884;9.182;2023-05-07T01:31:53;1.80;;;1.70;;
20065;SDS011;10193;48.884;9.182;2023-05-07T01:34:20;1.83;;;1.73;;
20065;SDS011;10193;48.884;9.182;2023-05-07T01:36:48;1.77;;;1.67;;
20065;SDS011;10193;48.884;9.182;2023-05-07T01:39:15;2.25;;;1.60;;
20065;SDS011;10193;48.884;9.182;2023-05-07T01:41:43;2.05;;;1.85;;
20065;SDS011;10193;48.884;9.182;2023-05-07T01:44:11;2.05;;;1.95;;
20065;SDS011;10193;48.884;9.182;2023-05-07T01:46:39;2.10;;;1.75;;
20065;SDS011;10193;48.884;9.182;2023-05-07T01:49:06;2.13;;;1.75;;
20065;SDS011;10193;48.884;9.182;2023-05-07T01:51:33;1.90;;;1.80;;
20065;SDS011;10193;48.884;9.182;2023-05-07T01:54:00;1.85;;;1.67;;
20065;SDS011;10193;48.884;9.182;2023-05-07T01:56:27;2.00;;;1.60;;
20065;SDS011;10193;48.884;9.182;2023-05-07T01:58:55;3.00;;;2.00;;
20065;SDS011;10193;48.884;9.182;2023-05-07T02:01:21;2.00;;;1.80;;
20065;SDS011;10193;48.884;9.182;2023-05-07T02:03:48;1.88;;;1.77;;
20065;SDS011;10193;48.884;9.182;2023-05-07T02:06:15;2.00;;;1.80;;
20065;SDS011;10193;48.884;9.182;2023-05-07T02:08:41;1.77;;;1.67;;
20065;SDS011;10193;48.884;9.182;2023-05-07T02:11:08;1.70;;;1.60;;
20065;SDS011;10193;48.884;9.182;2023-05-07T02:13:35;1.80;;;1.70;;
20065;SDS011;10193;48.884;9.182;2023-05-07T02:16:04;1.65;;;1.55;;
20065;SDS011;10193;48.884;9.182;2023-05-07T02:18:31;2.00;;;1.90;;
20065;SDS011;10193;48.884;9.182;2023-05-07T02:20:58;1.65;;;1.55;;
20065;SDS011;10193;48.884;9.182;2023-05-07T02:23:24;1.80;;;1.55;;
20065;SDS011;10193;48.884;9.182;2023-05-07T02:25:51;1.90;;;1.80;;
20065;SDS011;10193;48.884;9.182;2023-05-07T02:28:18;2.67;;;1.70;;
20065;SDS011;10193;48.884;9.182;2023-05-07T02:30:44;1.90;;;1.52;;
20065;SDS011;10193;48.884;9.182;2023-05-07T02:33:12;1.83;;;1.73;;
20065;SDS011;10193;48.884;9.182;2023-05-07T02:35:39;1.52;;;1.45;;
20065;SDS011;10193;48.884;9.182;2023-05-07T02:38:06;1.90;;;1.80;;
20065;SDS011;10193;48.884;9.182;2023-05-07T02:40:35;1.80;;;1.70;;
20065;SDS011;10193;48.884;9.182;2023-05-07T02:43:03;1.38;;;1.38;;
20065;SDS011;10193;48.884;9.182;2023-05-07T02:45:30;1.65;;;1.55;;
20065;SDS011;10193;48.884;9.182;2023-05-07T02:47:57;1.67;;;1.58;;
20065;SDS011;10193;48.884;9.182;2023-05-07T02:50:25;2.45;;;1.77;;
20065;SDS011;10193;48.884;9.182;2023-05-07T02:52:52;1.95;;;1.58;;
20065;SDS011;10193;48.884;9.182;2023-05-07T02:55:18;1.58;;;1.50;;
20065;SDS011;10193;48.884;9.182;2023-05-07T02:57:45;1.73;;;1.63;;
20065;SDS011;10193;48.884;9.182;2023-05-07T03:00:12;2.05;;;1.95;;
20065;SDS011;10193;48.884;9.182;2023-05-07T03:02:40;1.42;;;1.33;;
20065;SDS011;10193;48.884;9.182;2023-05-07T03:05:07;1.90;;;1.80;;
20065;SDS011;10193;48.884;9.182;2023-05-07T03:07:35;2.25;;;1.92;;
20065;SDS011;10193;48.884;9.182;2023-05-07T03:10:03;1.63;;;1.52;;
20065;SDS011;10193;48.884;9.182;2023-05-07T03:12:30;3.97;;;1.75;;
20065;SDS011;10193;48.884;9.182;2023-05-07T03:14:57;2.50;;;1.42;;
20065;SDS011;10193;48.884;9.182;2023-05-07T03:17:24;1.90;;;1.80;;
20065;SDS011;10193;48.884;9.182;2023-05-07T03:19:50;1.90;;;1.80;;
20065;SDS011;10193;48.884;9.182;2023-05-07T03:22:17;1.83;;;1.73;;
20065;SDS011;10193;48.884;9.182;2023-05-07T03:24:45;2.17;;;2.00;;
20065;SDS011;10193;48.884;9.182;2023-05-07T03:27:12;2.03;;;1.83;;
20065;SDS011;10193;48.884;9.182;2023-05-07T03:29:38;2.05;;;1.80;;
20065;SDS011;10193;48.884;9.182;2023-05-07T03:32:05;2.08;;;1.98;;
20065;SDS011;10193;48.884;9.182;2023-05-07T03:34:31;2.25;;;2.15;;
20065;SDS011;10193;48.884;9.182;2023-05-07T03:36:58;2.50;;;2.30;;
20065;SDS011;10193;48.884;9.182;2023-05-07T03:39:26;2.28;;;2.17;;
20065;SDS011;10193;48.884;9.182;2023-05-07T03:41:54;2.60;;;2.40;;
20065;SDS011;10193;48.884;9.182;2023-05-07T03:44:20;2.13;;;2.03;;
20065;SDS011;10193;48.884;9.182;2023-05-07T03:46:47;2.30;;;2.10;;
20065;SDS011;10193;48.884;9.182;2023-05-07T03:49:14;2.20;;;2.00;;
20065;SDS011;10193;48.884;9.182;2023-05-07T03:51:40;2.10;;;1.90;;
20065;SDS011;10193;48.884;9.182;2023-05-07T03:54:08;2.15;;;2.00;;
20065;SDS011;10193;48.884;9.182;2023-05-07T03:56:34;1.85;;;1.75;;
20065;SDS011;10193;48.884;9.182;2023-05-07T03:59:02;2.22;;;2.03;;
20065;SDS011;10193;48.884;9.182;2023-05-07T04:01:29;2.78;;;2.08;;
20065;SDS011;10193;48.884;9.182;2023-05-07T04:03:56;2.17;;;1.98;;
20065;SDS011;10193;48.884;9.182;2023-05-07T04:06:23;1.92;;;1.80;;
20065;SDS011;10193;48.884;9.182;2023-05-07T04:08:50;1.90;;;1.80;;
20065;SDS011;10193;48.884;9.182;2023-05-07T04:11:16;1.90;;;1.80;;
20065;SDS011;10193;48.884;9.182;2023-05-07T04:13:43;1.92;;;1.83;;
20065;SDS011;10193;48.884;9.182;2023-05-07T04:16:11;1.90;;;1.80;;
20065;SDS011;10193;48.884;9.182;2023-05-07T04:18:38;1.92;;;1.83;;
20065;SDS011;10193;48.884;9.182;2023-05-07T04:21:04;1.80;;;1.70;;
20065;SDS011;10193;48.884;9.182;2023-05-07T04:23:31;1.73;;;1.63;;
20065;SDS011;10193;48.884;9.182;2023-05-07T04:25:58;1.80;;;1.70;;
20065;SDS011;10193;48.884;9.182;2023-05-07T04:28:25;1.92;;;1.80;;
20065;SDS011;10193;48.884;9.182;2023-05-07T04:30:52;1.90;;;1.80;;
20065;SDS011;10193;48.884;9.182;2023-05-07T04:33:20;1.95;;;1.85;;
20065;SDS011;10193;48.884;9.182;2023-05-07T04:35:47;1.90;;;1.80;;
20065;SDS011;10193;48.884;9.182;2023-05-07T04:38:14;1.70;;;1.60;;
20065;SDS011;10193;48.884;9.182;2023-05-07T04:40:41;2.20;;;2.10;;
20065;SDS011;10193;48.884;9.182;2023-05-07T04:43:08;2.20;;;2.00;;
20065;SDS011;10193;48.884;9.182;2023-05-07T04:45:35;1.92;;;1.83;;
20065;SDS011;10193;48.884;9.182;2023-05-07T04:48:01;2.25;;;1.77;;
20065;SDS011;10193;48.884;9.182;2023-05-07T04:50:29;1.90;;;1.80;;
20065;SDS011;10193;48.884;9.182;2023-05-07T04:52:56;1.88;;;1.77;;
20065;SDS011;10193;48.884;9.182;2023-05-07T04:55:23;2.10;;;1.90;;
20065;SDS011;10193;48.884;9.182;2023-05-07T04:57:49;1.90;;;1.80;;
20065;SDS011;10193;48.884;9.182;2023-05-07T05:00:16;1.83;;;1.73;;
20065;SDS011;10193;48.884;9.182;2023-05-07T05:02:44;1.92;;;1.75;;
20065;SDS011;10193;48.884;9.182;2023-05-07T05:05:11;1.80;;;1.70;;
20065;SDS011;10193;48.884;9.182;2023-05-07T05:07:39;1.80;;;1.70;;
20065;SDS011;10193;48.884;9.182;2023-05-07T05:10:06;1.30;;;1.30;;
20065;SDS011;10193;48.884;9.182;2023-05-07T05:12:33;2.05;;;1.67;;
20065;SDS011;10193;48.884;9.182;2023-05-07T05:15:00;2.55;;;1.80;;
20065;SDS011;10193;48.884;9.182;2023-05-07T05:17:26;1.75;;;1.65;;
20065;SDS011;10193;48.884;9.182;2023-05-07T05:19:53;1.67;;;1.42;;
20065;SDS011;10193;48.884;9.182;2023-05-07T05:22:20;2.30;;;1.90;;
20065;SDS011;10193;48.884;9.182;2023-05-07T05:24:48;1.60;;;1.50;;
20065;SDS011;10193;48.884;9.182;2023-05-07T05:27:15;2.33;;;1.70;;
20065;SDS011;10193;48.884;9.182;2023-05-07T05:29:41;2.00;;;1.83;;
20065;SDS011;10193;48.884;9.182;2023-05-07T05:32:08;1.70;;;1.48;;
20065;SDS011;10193;48.884;9.182;2023-05-07T05:34:35;1.63;;;1.52;;
20065;SDS011;10193;48.884;9.182;2023-05-07T05:37:01;2.00;;;1.90;;
20065;SDS011;10193;48.884;9.182;2023-05-07T05:39:28;2.10;;;1.90;;
20065;SDS011;10193;48.884;9.182;2023-05-07T05:41:57;1.77;;;1.67;;
20065;SDS011;10193;48.884;9.182;2023-05-07T05:44:23;1.85;;;1.75;;
20065;SDS011;10193;48.884;9.182;2023-05-07T05:46:50;1.52;;;1.42;;
20065;SDS011;10193;48.884;9.182;2023-05-07T05:49:17;1.38;;;1.33;;
20065;SDS011;10193;48.884;9.182;2023-05-07T05:51:43;1.60;;;1.50;;
20065;SDS011;10193;48.884;9.182;2023-05-07T05:54:10;1.77;;;1.67;;
20065;SDS011;10193;48.884;9.182;2023-05-07T05:56:37;1.80;;;1.70;;
20065;SDS011;10193;48.884;9.182;2023-05-07T05:59:05;1.60;;;1.42;;
20065;SDS011;10193;48.884;9.182;2023-05-07T06:01:32;1.40;;;1.40;;
20065;SDS011;10193;48.884;9.182;2023-05-07T06:03:59;1.40;;;1.30;;
20065;SDS011;10193;48.884;9.182;2023-05-07T06:06:26;1.50;;;1.40;;
20065;SDS011;10193;48.884;9.182;2023-05-07T06:08:53;1.55;;;1.45;;
20065;SDS011;10193;48.884;9.182;2023-05-07T06:11:19;1.35;;;1.25;;
20065;SDS011;10193;48.884;9.182;2023-05-07T06:13:46;1.85;;;1.33;;
20065;SDS011;10193;48.884;9.182;2023-05-07T06:16:14;1.38;;;1.30;;
20065;SDS011;10193;48.884;9.182;2023-05-07T06:18:41;2.28;;;1.30;;
20065;SDS011;10193;48.884;9.182;2023-05-07T06:21:07;1.10;;;1.10;;
20065;SDS011;10193;48.884;9.182;2023-05-07T06:23:36;1.05;;;1.05;;
20065;SDS011;10193;48.884;9.182;2023-05-07T06:26:02;1.45;;;1.23;;
20065;SDS011;10193;48.884;9.182;2023-05-07T06:28:29;1.42;;;1.33;;
20065;SDS011;10193;48.884;9.182;2023-05-07T06:31:10;1.23;;;1.20;;
20065;SDS011;10193;48.884;9.182;2023-05-07T06:33:39;1.42;;;1.33;;
20065;SDS011;10193;48.884;9.182;2023-05-07T06:36:06;1.63;;;1.52;;
20065;SDS011;10193;48.884;9.182;2023-05-07T06:38:33;1.40;;;1.40;;
20065;SDS011;10193;48.884;9.182;2023-05-07T06:40:59;1.35;;;1.35;;
20065;SDS011;10193;48.884;9.182;2023-05-07T06:43:26;1.45;;;1.25;;
20065;SDS011;10193;48.884;9.182;2023-05-07T06:45:53;1.95;;;1.25;;
20065;SDS011;10193;48.884;9.182;2023-05-07T06:48:19;1.00;;;1.00;;
20065;SDS011;10193;48.884;9.182;2023-05-07T06:50:47;1.77;;;1.25;;
20065;SDS011;10193;48.884;9.182;2023-05-07T06:53:14;1.17;;;1.17;;
20065;SDS011;10193;48.884;9.182;2023-05-07T06:55:40;1.48;;;1.38;;
20065;SDS011;10193;48.884;9.182;2023-05-07T06:58:07;1.05;;;1.00;;
20065;SDS011;10193;48.884;9.182;2023-05-07T07:00:34;1.10;;;1.10;;
20065;SDS011;10193;48.884;9.182;2023-05-07T07:03:01;1.38;;;1.27;;
20065;SDS011;10193;48.884;9.182;2023-05-07T07:05:27;1.50;;;1.40;;
20065;SDS011;10193;48.884;9.182;2023-05-07T07:07:55;1.40;;;1.30;;
20065;SDS011;10193;48.884;9.182;2023-05-07T07:10:22;1.58;;;1.33;;
20065;SDS011;10193;48.884;9.182;2023-05-07T07:12:49;1.30;;;1.20;;
20065;SDS011;10193;48.884;9.182;2023-05-07T07:15:17;1.30;;;1.20;;
20065;SDS011;10193;48.884;9.182;2023-05-07T07:17:45;1.50;;;1.40;;
20065;SDS011;10193;48.884;9.182;2023-05-07T07:20:12;1.60;;;1.50;;
20065;SDS011;10193;48.884;9.182;2023-05-07T07:22:38;1.70;;;1.60;;
20065;SDS011;10193;48.884;9.182;2023-05-07T07:25:07;1.50;;;1.40;;
20065;SDS011;10193;48.884;9.182;2023-05-07T07:27:34;1.60;;;1.50;;
20065;SDS011;10193;48.884;9.182;2023-05-07T07:30:01;2.58;;;1.50;;
20065;SDS011;10193;48.884;9.182;2023-05-07T07:32:27;1.55;;;1.45;;
20065;SDS011;10193;48.884;9.182;2023-05-07T07:34:54;1.25;;;1.23;;
20065;SDS011;10193;48.884;9.182;2023-05-07T07:37:21;3.33;;;1.48;;
20065;SDS011;10193;48.884;9.182;2023-05-07T07:39:47;1.23;;;1.23;;
20065;SDS011;10193;48.884;9.182;2023-05-07T07:42:15;1.30;;;1.20;;
20065;SDS011;10193;48.884;9.182;2023-05-07T07:44:43;1.25;;;1.25;;
20065;SDS011;10193;48.884;9.182;2023-05-07T07:47:09;1.50;;;1.40;;
20065;SDS011;10193;48.884;9.182;2023-05-07T07:49:36;1.70;;;1.60;;
20065;SDS011;10193;48.884;9.182;2023-05-07T07:52:03;1.50;;;1.50;;
20065;SDS011;10193;48.884;9.182;2023-05-07T07:54:30;1.58;;;1.48;;
20065;SDS011;10193;48.884;9.182;2023-05-07T07:56:57;2.25;;;1.50;;
20065;SDS011;10193;48.884;9.182;2023-05-07T07:59:26;1.63;;;1.52;;
20065;SDS011;10193;48.884;9.182;2023-05-07T08:01:52;1.52;;;1.45;;
20065;SDS011;10193;48.884;9.182;2023-05-07T08:04:21;1.35;;;1.35;;
20065;SDS011;10193;48.884;9.182;2023-05-07T08:06:48;1.40;;;1.40;;
20065;SDS011;10193;48.884;9.182;2023-05-07T08:09:15;1.50;;;1.40;;
20065;SDS011;10193;48.884;9.182;2023-05-07T08:11:42;1.48;;;1.38;;
20065;SDS011;10193;48.884;9.182;2023-05-07T08:14:08;1.67;;;1.58;;
20065;SDS011;10193;48.884;9.182;2023-05-07T08:16:36;1.33;;;1.33;;
20065;SDS011;10193;48.884;9.182;2023-05-07T08:19:03;1.30;;;1.30;;
20065;SDS011;10193;48.884;9.182;2023-05-07T08:21:30;2.25;;;1.67;;
20065;SDS011;10193;48.884;9.182;2023-05-07T08:23:57;1.55;;;1.45;;
20065;SDS011;10193;48.884;9.182;2023-05-07T08:26:23;1.80;;;1.70;;
20065;SDS011;10193;48.884;9.182;2023-05-07T08:28:50;1.55;;;1.45;;
20065;SDS011;10193;48.884;9.182;2023-05-07T08:31:16;1.70;;;1.60;;
20065;SDS011;10193;48.884;9.182;2023-05-07T08:33:44;2.50;;;1.60;;
20065;SDS011;10193;48.884;9.182;2023-05-07T08:36:11;1.45;;;1.38;;
20065;SDS011;10193;48.884;9.182;2023-05-07T08:38:38;1.70;;;1.60;;
20065;SDS011;10193;48.884;9.182;2023-05-07T08:41:09;1.85;;;1.75;;
20065;SDS011;10193;48.884;9.182;2023-05-07T08:43:36;1.60;;;1.50;;
20065;SDS011;10193;48.884;9.182;2023-05-07T08:46:06;1.40;;;1.40;;
20065;SDS011;10193;48.884;9.182;2023-05-07T08:48:35;1.58;;;1.48;;
20065;SDS011;10193;48.884;9.182;2023-05-07T08:51:04;1.80;;;1.70;;
20065;SDS011;10193;48.884;9.182;2023-05-07T08:53:31;1.38;;;1.30;;
20065;SDS011;10193;48.884;9.182;2023-05-07T08:55:59;1.60;;;1.50;;
20065;SDS011;10193;48.884;9.182;2023-05-07T08:58:26;1.75;;;1.60;;
20065;SDS011;10193;48.884;9.182;2023-05-07T09:00:52;1.80;;;1.70;;
20065;SDS011;10193;48.884;9.182;2023-05-07T09:03:19;1.75;;;1.65;;
20065;SDS011;10193;48.884;9.182;2023-05-07T09:05:46;1.73;;;1.63;;
20065;SDS011;10193;48.884;9.182;2023-05-07T09:08:15;1.70;;;1.60;;
20065;SDS011;10193;48.884;9.182;2023-05-07T09:10:42;2.08;;;1.75;;
20065;SDS011;10193;48.884;9.182;2023-05-07T09:13:08;1.60;;;1.50;;
20065;SDS011;10193;48.884;9.182;2023-05-07T09:15:38;1.70;;;1.60;;
20065;SDS011;10193;48.884;9.182;2023-05-07T09:18:04;1.80;;;1.70;;
20065;SDS011;10193;48.884;9.182;2023-05-07T09:20:31;1.90;;;1.42;;
20065;SDS011;10193;48.884;9.182;2023-05-07T09:22:58;1.80;;;1.70;;
20065;SDS011;10193;48.884;9.182;2023-05-07T09:25:29;1.88;;;1.77;;
20065;SDS011;10193;48.884;9.182;2023-05-07T09:27:56;1.77;;;1.67;;
20065;SDS011;10193;48.884;9.182;2023-05-07T09:30:25;1.85;;;1.75;;
20065;SDS011;10193;48.884;9.182;2023-05-07T09:32:53;1.80;;;1.70;;
20065;SDS011;10193;48.884;9.182;2023-05-07T09:35:20;2.08;;;1.98;;
20065;SDS011;10193;48.884;9.182;2023-05-07T09:37:49;1.95;;;1.65;;
20065;SDS011;10193;48.884;9.182;2023-05-07T09:40:22;1.92;;;1.83;;
20065;SDS011;10193;48.884;9.182;2023-05-07T09:42:51;1.95;;;1.85;;
20065;SDS011;10193;48.884;9.182;2023-05-07T09:45:21;1.60;;;1.60;;
20065;SDS011;10193;48.884;9.182;2023-05-07T09:47:49;1.70;;;1.60;;
20065;SDS011;10193;48.884;9.182;2023-05-07T09:50:19;2.05;;;1.70;;
20065;SDS011;10193;48.884;9.182;2023-05-07T09:52:51;1.67;;;1.58;;
20065;SDS011;10193;48.884;9.182;2023-05-07T09:55:19;1.90;;;1.80;;
20065;SDS011;10193;48.884;9.182;2023-05-07T09:57:46;1.83;;;1.73;;
20065;SDS011;10193;48.884;9.182;2023-05-07T10:00:15;1.80;;;1.70;;
20065;SDS011;10193;48.884;9.182;2023-05-07T10:02:44;1.88;;;1.77;;
20065;SDS011;10193;48.884;9.182;2023-05-07T10:05:14;3.28;;;2.10;;
20065;SDS011;10193;48.884;9.182;2023-05-07T10:07:41;1.75;;;1.65;;
20065;SDS011;10193;48.884;9.182;2023-05-07T10:10:08;1.88;;;1.77;;
20065;SDS011;10193;48.884;9.182;2023-05-07T10:12:36;2.25;;;2.05;;
20065;SDS011;10193;48.884;9.182;2023-05-07T10:15:05;1.73;;;1.63;;
20065;SDS011;10193;48.884;9.182;2023-05-07T10:17:35;1.80;;;1.70;;
20065;SDS011;10193;48.884;9.182;2023-05-07T10:20:03;2.17;;;1.98;;
20065;SDS011;10193;48.884;9.182;2023-05-07T10:22:30;1.50;;;1.40;;
20065;SDS011;10193;48.884;9.182;2023-05-07T10:25:03;1.55;;;1.45;;
20065;SDS011;10193;48.884;9.182;2023-05-07T10:27:36;1.80;;;1.70;;
20065;SDS011;10193;48.884;9.182;2023-05-07T10:30:05;1.70;;;1.60;;
20065;SDS011;10193;48.884;9.182;2023-05-07T10:32:43;1.70;;;1.60;;
20065;SDS011;10193;48.884;9.182;2023-05-07T10:35:16;1.55;;;1.40;;
20065;SDS011;10193;48.884;9.182;2023-05-07T10:37:46;1.80;;;1.70;;
20065;SDS011;10193;48.884;9.182;2023-05-07T10:40:14;2.00;;;1.90;;
20065;SDS011;10193;48.884;9.182;2023-05-07T10:42:52;2.17;;;1.60;;
20065;SDS011;10193;48.884;9.182;2023-05-07T10:45:21;1.80;;;1.70;;
20065;SDS011;10193;48.884;9.182;2023-05-07T10:50:41;1.95;;;1.85;;
20065;SDS011;10193;48.884;9.182;2023-05-07T10:58:50;1.50;;;1.40;;
20065;SDS011;10193;48.884;9.182;2023-05-07T11:01:17;1.67;;;1.58;;
20065;SDS011;10193;48.884;9.182;2023-05-07T11:04:17;1.77;;;1.67;;
20065;SDS011;10193;48.884;9.182;2023-05-07T11:09:59;5.03;;;1.90;;
20065;SDS011;10193;48.884;9.182;2023-05-07T11:12:46;1.25;;;1.25;;
20065;SDS011;10193;48.884;9.182;2023-05-07T11:15:14;1.50;;;1.40;;
20065;SDS011;10193;48.884;9.182;2023-05-07T11:17:52;1.98;;;1.83;;
20065;SDS011;10193;48.884;9.182;2023-05-07T11:20:21;3.15;;;1.58;;
20065;SDS011;10193;48.884;9.182;2023-05-07T11:26:43;1.48;;;1.45;;
20065;SDS011;10193;48.884;9.182;2023-05-07T11:29:12;2.05;;;1.85;;
20065;SDS011;10193;48.884;9.182;2023-05-07T11:31:40;2.33;;;1.70;;
20065;SDS011;10193;48.884;9.182;2023-05-07T11:34:07;1.65;;;1.52;;
20065;SDS011;10193;48.884;9.182;2023-05-07T11:36:34;1.63;;;1.55;;
20065;SDS011;10193;48.884;9.182;2023-05-07T11:39:19;1.52;;;1.42;;
20065;SDS011;10193;48.884;9.182;2023-05-07T11:41:52;1.48;;;1.38;;
20065;SDS011;10193;48.884;9.182;2023-05-07T11:44:18;2.10;;;1.40;;
20065;SDS011;10193;48.884;9.182;2023-05-07T11:46:45;1.33;;;1.33;;
20065;SDS011;10193;48.884;9.182;2023-05-07T11:49:12;1.10;;;1.10;;
20065;SDS011;10193;48.884;9.182;2023-05-07T11:51:39;1.75;;;1.30;;
20065;SDS011;10193;48.884;9.182;2023-05-07T11:54:07;1.40;;;1.30;;
20065;SDS011;10193;48.884;9.182;2023-05-07T11:56:36;1.50;;;1.40;;
20065;SDS011;10193;48.884;9.182;2023-05-07T11:59:04;1.35;;;1.13;;
20065;SDS011;10193;48.884;9.182;2023-05-07T12:01:31;1.65;;;1.30;;
20065;SDS011;10193;48.884;9.182;2023-05-07T12:04:02;1.25;;;1.25;;
20065;SDS011;10193;48.884;9.182;2023-05-07T12:06:29;1.15;;;1.13;;
20065;SDS011;10193;48.884;9.182;2023-05-07T12:08:55;1.20;;;1.15;;
20065;SDS011;10193;48.884;9.182;2023-05-07T12:11:23;1.40;;;1.20;;
20065;SDS011;10193;48.884;9.182;2023-05-07T12:13:51;1.48;;;1.38;;
20065;SDS011;10193;48.884;9.182;2023-05-07T12:16:20;1.05;;;1.05;;
20065;SDS011;10193;48.884;9.182;2023-05-07T12:18:47;1.23;;;1.13;;
20065;SDS011;10193;48.884;9.182;2023-05-07T12:21:15;1.45;;;1.23;;
20065;SDS011;10193;48.884;9.182;2023-05-07T12:23:42;1.13;;;1.05;;
20065;SDS011;10193;48.884;9.182;2023-05-07T12:26:09;1.20;;;1.20;;
20065;SDS011;10193;48.884;9.182;2023-05-07T12:28:36;1.00;;;1.00;;
20065;SDS011;10193;48.884;9.182;2023-05-07T12:31:04;1.27;;;1.27;;
20065;SDS011;10193;48.884;9.182;2023-05-07T12:33:33;1.05;;;1.05;;
20065;SDS011;10193;48.884;9.182;2023-05-07T12:36:02;1.08;;;1.08;;
20065;SDS011;10193;48.884;9.182;2023-05-07T12:38:34;1.13;;;1.10;;
20065;SDS011;10193;48.884;9.182;2023-05-07T12:41:02;1.05;;;1.05;;
20065;SDS011;10193;48.884;9.182;2023-05-07T12:43:29;1.35;;;1.20;;
20065;SDS011;10193;48.884;9.182;2023-05-07T12:45:57;1.40;;;1.30;;
20065;SDS011;10193;48.884;9.182;2023-05-07T12:48:26;1.50;;;1.40;;
20065;SDS011;10193;48.884;9.182;2023-05-07T12:50:55;1.30;;;1.30;;
20065;SDS011;10193;48.884;9.182;2023-05-07T12:53:23;1.45;;;1.30;;
20065;SDS011;10193;48.884;9.182;2023-05-07T12:55:51;1.40;;;1.40;;
20065;SDS011;10193;48.884;9.182;2023-05-07T12:58:19;1.25;;;1.25;;
20065;SDS011;10193;48.884;9.182;2023-05-07T13:00:47;1.50;;;1.40;;
20065;SDS011;10193;48.884;9.182;2023-05-07T13:03:22;1.20;;;1.20;;
20065;SDS011;10193;48.884;9.182;2023-05-07T13:05:50;1.50;;;1.48;;
20065;SDS011;10193;48.884;9.182;2023-05-07T13:08:25;1.40;;;1.30;;
20065;SDS011;10193;48.884;9.182;2023-05-07T13:10:52;1.52;;;1.48;;
20065;SDS011;10193;48.884;9.182;2023-05-07T13:13:19;1.65;;;1.30;;
20065;SDS011;10193;48.884;9.182;2023-05-07T13:15:46;1.60;;;1.50;;
20065;SDS011;10193;48.884;9.182;2023-05-07T13:18:13;1.35;;;1.25;;
20065;SDS011;10193;48.884;9.182;2023-05-07T13:20:40;1.67;;;1.15;;
20065;SDS011;10193;48.884;9.182;2023-05-07T13:23:06;1.23;;;1.13;;
20065;SDS011;10193;48.884;9.182;2023-05-07T13:25:34;1.30;;;1.17;;
20065;SDS011;10193;48.884;9.182;2023-05-07T13:28:01;1.45;;;1.35;;
20065;SDS011;10193;48.884;9.182;2023-05-07T13:30:29;2.13;;;1.33;;
20065;SDS011;10193;48.884;9.182;2023-05-07T13:32:56;1.70;;;1.60;;
20065;SDS011;10193;48.884;9.182;2023-05-07T13:35:22;1.40;;;1.30;;
20065;SDS011;10193;48.884;9.182;2023-05-07T13:37:49;1.42;;;1.33;;
20065;SDS011;10193;48.884;9.182;2023-05-07T13:40:17;3.00;;;1.50;;
20065;SDS011;10193;48.884;9.182;2023-05-07T13:42:45;1.05;;;0.90;;
20065;SDS011;10193;48.884;9.182;2023-05-07T13:45:12;0.80;;;0.80;;
20065;SDS011;10193;48.884;9.182;2023-05-07T13:47:39;0.80;;;0.80;;
20065;SDS011;10193;48.884;9.182;2023-05-07T13:50:06;1.05;;;0.93;;
20065;SDS011;10193;48.884;9.182;2023-05-07T13:52:33;1.10;;;1.10;;
20065;SDS011;10193;48.884;9.182;2023-05-07T13:55:00;1.48;;;1.10;;
20065;SDS011;10193;48.884;9.182;2023-05-07T13:57:27;2.13;;;1.00;;
20065;SDS011;10193;48.884;9.182;2023-05-07T13:59:55;1.60;;;1.10;;
20065;SDS011;10193;48.884;9.182;2023-05-07T14:02:21;1.20;;;1.00;;
20065;SDS011;10193;48.884;9.182;2023-05-07T14:04:48;0.95;;;0.88;;
20065;SDS011;10193;48.884;9.182;2023-05-07T14:07:15;0.65;;;0.65;;
20065;SDS011;10193;48.884;9.182;2023-05-07T14:09:41;0.60;;;0.60;;
20065;SDS011;10193;48.884;9.182;2023-05-07T14:12:08;0.77;;;0.55;;
20065;SDS011;10193;48.884;9.182;2023-05-07T14:14:34;0.60;;;0.50;;
20065;SDS011;10193;48.884;9.182;2023-05-07T14:17:02;0.40;;;0.40;;
20065;SDS011;10193;48.884;9.182;2023-05-07T14:19:29;0.40;;;0.40;;
20065;SDS011;10193;48.884;9.182;2023-05-07T14:21:56;0.43;;;0.43;;
20065;SDS011;10193;48.884;9.182;2023-05-07T14:24:23;1.33;;;0.82;;
20065;SDS011;10193;48.884;9.182;2023-05-07T14:26:50;1.08;;;0.65;;
20065;SDS011;10193;48.884;9.182;2023-05-07T14:29:17;1.20;;;0.70;;
20065;SDS011;10193;48.884;9.182;2023-05-07T14:31:44;1.00;;;0.90;;
20065;SDS011;10193;48.884;9.182;2023-05-07T14:34:12;1.20;;;1.10;;
20065;SDS011;10193;48.884;9.182;2023-05-07T14:36:39;0.80;;;0.80;;
20065;SDS011;10193;48.884;9.182;2023-05-07T14:39:06;0.90;;;0.88;;
20065;SDS011;10193;48.884;9.182;2023-05-07T14:41:33;1.02;;;0.88;;
20065;SDS011;10193;48.884;9.182;2023-05-07T14:43:59;1.00;;;0.80;;
20065;SDS011;10193;48.884;9.182;2023-05-07T14:46:26;0.88;;;0.88;;
20065;SDS011;10193;48.884;9.182;2023-05-07T14:48:53;1.10;;;1.00;;
20065;SDS011;10193;48.884;9.182;2023-05-07T14:51:21;1.05;;;0.93;;
20065;SDS011;10193;48.884;9.182;2023-05-07T14:53:49;1.20;;;1.10;;
20065;SDS011;10193;48.884;9.182;2023-05-07T14:56:16;0.98;;;0.98;;
20065;SDS011;10193;48.884;9.182;2023-05-07T14:58:43;1.60;;;1.10;;
20065;SDS011;10193;48.884;9.182;2023-05-07T15:01:12;1.98;;;1.00;;
20065;SDS011;10193;48.884;9.182;2023-05-07T15:03:39;1.63;;;1.20;;
20065;SDS011;10193;48.884;9.182;2023-05-07T15:06:06;0.95;;;0.95;;